Date,TemperatureHighF,TemperatureAvgF,TemperatureLowF,DewpointHighF,DewpointAvgF,DewpointLowF,HumidityHigh,HumidityAvg,HumidityLow,PressureMaxIn,PressureMinIn,WindSpeedMaxMPH,WindSpeedAvgMPH,GustSpeedMaxMPH,PrecipitationSumIn
2013-2-5,-200,0,200,-100,-100,-100,0,0,100,0.00,40.00,0,-999,0,0.00
2013-2-6,38,31,8,28,23,5,93,73,60,30.15,29.97,5,2,0,0.00
2013-2-7,34,33,31,33,31,27,99,94,81,29.98,29.72,4,1,0,0.56
2013-2-8,27,24,22,24,22,20,94,92,90,30.25,29.91,5,2,0,0.00
2013-2-9,35,26,17,28,22,17,98,87,72,30.23,29.87,6,1,0,0.11
2013-2-10,47,37,21,45,35,20,99,93,68,29.88,29.33,11,4,0,0.30
2013-2-11,43,32,27,34,24,20,78,72,68,29.93,29.35,26,13,0,0.01
2013-2-12,27,24,19,21,19,17,95,81,74,30.00,29.81,14,5,0,0.00
2013-2-13,42,32,18,31,26,17,98,82,59,29.81,29.62,8,3,0,0.00
2013-2-14,38,36,32,32,28,21,84,73,57,29.94,29.56,14,6,0,0.00
2013-2-15,32,26,18,25,14,8,86,61,45,30.13,29.94,10,5,0,0.00
2013-2-16,19,15,10,8,4,1,74,63,52,30.13,30.06,12,4,0,0.00
2013-2-17,32,20,7,13,5,-1,80,54,30,30.14,29.91,5,2,0,0.00
2013-2-18,50,38,26,45,29,14,95,69,59,29.91,29.34,12,5,0,0.38
2013-2-19,17,13,11,12,6,1,84,73,63,30.12,29.62,22,12,0,0.00
2013-2-20,24,14,7,12,6,0,88,69,61,30.30,30.12,12,5,0,0.00
2013-2-21,29,24,14,24,19,10,95,81,73,30.31,29.92,14,5,0,0.00
2013-2-22,32,28,24,32,26,23,99,93,84,29.91,29.69,10,5,0,0.01
2013-2-23,28,25,21,24,19,17,88,79,65,29.88,29.80,10,6,0,0.00
2013-2-24,45,26,15,25,18,12,91,74,45,30.07,29.88,7,2,0,0.08
2013-2-25,49,32,16,28,23,15,94,74,42,30.09,29.89,7,2,0,0.00
2013-2-26,35,33,31,32,30,26,99,89,71,29.89,29.45,17,8,0,0.00
2013-2-27,34,32,32,32,31,30,98,96,91,29.65,29.44,8,3,0,0.05
2013-2-28,35,32,26,31,28,21,96,86,74,30.03,29.66,8,4,0,0.03
2013-3-1,28,26,24,24,22,20,88,84,80,30.14,30.00,10,4,0,0.00
2013-3-2,32,24,15,20,16,11,86,74,54,30.14,30.09,9,3,0,0.00
2013-3-3,39,22,14,15,11,8,89,65,36,30.10,30.00,8,2,0,0.00
2013-3-4,35,26,13,25,19,10,90,75,59,30.07,29.93,10,3,0,0.00
2013-3-5,34,31,28,31,28,25,96,88,76,29.94,29.72,9,4,0,0.00
2013-3-6,34,30,27,28,26,23,88,84,77,30.24,29.91,7,4,0,0.03
2013-3-7,41,30,24,26,24,21,93,77,55,30.35,30.22,5,2,0,0.03
2013-3-8,49,33,19,28,24,18,96,73,44,30.39,30.22,9,2,0,0.00
2013-3-9,45,38,28,34,29,24,88,72,58,30.21,29.72,7,3,0,0.04
2013-3-10,49,44,41,47,42,34,99,94,62,29.75,29.52,6,2,0,1.07
2013-3-11,47,38,32,46,36,29,99,95,88,29.69,29.44,10,4,0,0.10
2013-3-12,35,31,25,30,25,21,93,81,66,29.92,29.68,14,8,0,0.00
2013-3-13,33,26,20,20,15,8,85,63,38,30.24,29.92,12,6,0,0.00
2013-3-14,38,29,20,29,21,15,88,71,45,30.24,29.99,6,3,0,0.00
2013-3-15,43,34,30,37,31,28,96,88,71,30.00,29.68,7,3,0,0.23
2013-3-16,33,31,29,32,28,22,97,87,73,30.04,29.64,8,3,0,0.01
2013-3-17,37,30,23,24,21,16,75,69,60,30.14,29.92,12,5,0,0.00
2013-3-18,34,30,21,32,26,13,93,84,69,29.91,29.50,20,7,0,0.07
2013-3-19,32,23,16,15,12,9,76,64,48,29.98,29.68,18,12,0,0.00
2013-3-20,23,18,13,13,7,2,78,60,53,30.01,29.93,15,8,0,0.00
2013-3-21,33,22,12,16,10,4,75,60,47,29.97,29.91,9,5,0,0.00
2013-3-22,44,27,16,21,16,11,81,63,36,30.00,29.90,7,2,0,0.00
2013-3-23,46,32,22,26,22,18,88,68,40,30.06,29.94,9,2,0,0.00
2013-3-24,38,33,31,28,26,23,86,74,59,29.95,29.59,15,6,0,0.00
2013-3-25,36,33,30,29,26,22,84,75,67,30.00,29.62,9,5,0,0.00
2013-3-26,43,35,32,26,25,23,76,66,47,30.17,29.99,11,5,0,0.00
2013-3-27,42,36,26,26,24,21,79,61,43,30.24,30.17,7,4,0,0.00
2013-3-28,54,38,24,28,22,20,85,56,33,30.27,30.19,7,2,0,0.00
2013-3-29,58,42,31,28,25,21,79,54,30,30.25,30.14,7,2,0,0.00
2013-3-30,60,45,27,40,31,24,87,61,39,30.17,29.75,12,3,0,0.00
2013-3-31,56,46,36,42,35,24,91,68,37,29.81,29.62,17,8,0,0.00
2013-4-1,40,33,28,24,16,12,70,51,36,30.11,29.81,14,5,0,0.00
2013-4-2,44,33,24,19,15,10,70,48,28,30.24,30.11,14,5,0,0.00
2013-4-3,49,34,22,22,16,11,79,50,30,30.36,30.24,8,2,0,0.00
2013-4-4,58,43,25,34,24,16,78,51,30,30.24,29.88,12,4,0,0.00
2013-4-5,50,41,33,32,26,19,78,56,42,30.14,29.94,12,5,0,0.00
2013-4-6,67,51,35,48,34,24,85,53,34,30.08,29.53,16,5,0,0.19
2013-4-7,59,47,37,48,38,31,85,71,50,29.91,29.53,12,6,0,0.00
2013-4-8,66,50,37,53,43,32,96,79,59,29.91,29.44,19,5,0,0.49
2013-4-9,54,42,39,46,39,37,95,90,76,29.94,29.74,10,5,0,0.01
2013-4-10,40,39,36,40,38,36,98,95,92,29.94,29.76,14,6,0,0.92
2013-4-11,45,40,36,44,40,36,99,99,97,29.82,29.48,18,5,0,0.47
2013-4-12,44,38,36,40,35,31,98,87,75,29.75,29.48,11,6,0,0.00
2013-4-13,44,38,34,31,29,26,84,71,54,29.91,29.74,16,6,0,0.00
2013-4-14,65,49,36,50,37,28,82,63,50,29.94,29.58,12,5,0,0.00
2013-4-15,67,56,43,53,48,39,93,77,56,29.91,29.58,10,5,0,0.48
2013-4-16,60,45,38,40,36,32,92,72,42,30.22,29.88,8,3,0,0.00
2013-4-17,45,43,40,45,38,31,99,85,63,30.23,29.71,14,5,0,1.28
2013-4-18,63,51,41,59,49,35,99,93,79,29.73,29.32,19,5,0,2.75
2013-4-19,40,37,31,34,30,26,95,75,64,29.82,29.39,21,11,0,0.00
2013-4-20,49,36,29,28,22,18,84,60,33,30.36,29.83,12,5,0,0.01
2013-4-21,60,43,26,31,26,21,93,55,31,30.45,30.25,8,3,0,0.00
2013-4-22,72,55,42,38,34,30,63,46,29,30.25,29.97,9,3,0,0.00
2013-4-23,58,48,37,50,43,36,94,83,54,29.96,29.80,8,3,0,0.68
2013-4-24,51,42,36,37,31,27,96,68,40,30.03,29.85,10,4,0,0.10
2013-4-25,51,44,36,36,32,29,89,64,45,30.25,29.96,14,6,0,0.03
2013-4-26,67,53,33,46,38,27,88,59,44,30.26,30.14,12,4,0,0.00
2013-4-27,74,59,42,49,43,39,92,59,33,30.22,29.93,8,3,0,0.00
2013-4-28,72,59,50,54,48,42,90,69,52,29.93,29.74,8,2,0,0.00
2013-4-29,77,63,48,55,52,46,94,68,44,29.83,29.68,9,3,0,0.00
2013-4-30,88,71,61,61,57,52,77,62,39,29.85,29.68,10,4,0,0.00
2013-5-1,90,76,64,60,55,51,72,51,30,30.05,29.86,7,3,0,0.00
2013-5-2,62,51,43,52,42,37,89,73,56,30.17,30.06,7,4,0,0.18
2013-5-3,50,45,40,46,42,36,94,90,84,30.08,29.89,10,4,0,0.09
2013-5-4,74,60,48,52,48,44,93,68,44,29.94,29.88,10,4,0,0.00
2013-5-5,75,67,54,48,45,40,58,46,37,29.96,29.91,11,5,0,0.00
2013-5-6,77,62,52,45,41,37,70,49,26,29.97,29.90,9,2,0,0.00
2013-5-7,83,66,47,48,44,39,79,48,29,29.98,29.90,9,2,0,0.00
2013-5-8,85,67,49,51,46,43,85,52,26,29.96,29.88,8,2,0,0.00
2013-5-9,76,61,46,60,51,45,96,73,48,29.89,29.77,10,2,0,0.27
2013-5-10,48,46,44,46,43,41,98,92,81,29.91,29.70,7,3,0,0.11
2013-5-11,57,49,42,49,38,26,96,69,36,29.96,29.74,18,5,0,0.00
2013-5-12,59,46,37,34,28,24,73,52,32,30.04,29.96,14,5,0,0.00
2013-5-13,68,50,33,39,33,25,92,55,23,30.11,29.93,8,2,0,0.00
2013-5-14,100,72,49,59,50,35,60,48,21,29.92,29.54,11,4,0,0.00
2013-5-15,88,77,61,60,53,48,72,45,28,29.76,29.52,10,4,0,0.00
2013-5-16,89,70,56,52,48,39,79,49,25,29.90,29.73,8,2,0,0.00
2013-5-17,71,61,54,53,47,40,71,59,46,29.98,29.87,9,2,0,0.00
2013-5-18,85,69,54,63,56,46,84,65,48,29.98,29.87,8,2,0,0.00
2013-5-19,92,75,58,67,61,54,88,65,43,29.89,29.68,7,2,0,0.00
2013-5-20,89,79,66,67,62,56,95,57,34,29.70,29.60,13,5,0,0.81
2013-5-21,81,72,63,65,62,57,98,72,43,29.65,29.55,16,4,0,0.05
2013-5-22,72,66,55,66,61,52,99,85,59,29.67,29.52,10,3,0,1.19
2013-5-23,59,51,40,51,44,34,94,78,52,30.22,29.67,9,4,0,0.00
2013-5-24,67,52,38,40,36,32,83,57,34,30.37,30.23,8,3,0,0.00
2013-5-25,61,52,41,43,38,34,82,61,44,30.34,30.23,6,2,0,0.00
2013-5-26,74,57,41,51,44,35,84,63,42,30.25,30.07,8,2,0,0.02
2013-5-27,60,56,53,55,52,43,94,85,69,30.09,29.80,8,3,0,0.03
2013-5-28,76,67,55,69,63,52,99,87,73,29.80,29.61,10,3,0,0.42
2013-5-29,88,74,64,70,65,60,95,75,53,29.88,29.68,10,2,0,0.10
2013-5-30,90,76,64,73,66,60,96,71,58,29.84,29.66,14,4,0,0.20
2013-5-31,78,71,63,67,64,61,97,80,63,29.78,29.61,11,3,0,0.21
2013-6-1,76,69,62,68,62,59,95,81,65,29.64,29.56,10,4,0,0.26
2013-6-2,62,55,43,59,50,40,92,82,71,29.96,29.61,7,3,0,0.01
2013-6-3,78,58,40,48,43,39,95,63,30,30.05,29.94,8,2,0,0.00
2013-6-4,78,63,48,50,46,43,87,57,32,30.10,30.01,8,2,0,0.00
2013-6-5,73,60,54,54,49,44,77,67,45,30.05,29.88,6,2,0,0.02
2013-6-6,68,58,52,55,52,45,97,82,54,29.88,29.81,8,3,0,0.44
2013-6-7,78,62,50,52,47,39,85,61,31,29.88,29.83,8,2,0,0.00
2013-6-8,80,64,47,50,46,41,85,55,30,29.94,29.83,6,2,0,0.00
2013-6-9,85,70,53,61,55,47,81,61,42,29.94,29.73,7,2,0,0.00
2013-6-10,82,69,61,66,63,59,97,81,58,29.77,29.66,6,2,0,0.06
2013-6-11,86,73,61,66,62,58,92,70,51,29.84,29.69,6,2,0,0.00
2013-6-12,86,72,63,69,64,61,97,77,55,29.84,29.51,8,2,0,0.78
2013-6-13,80,69,58,62,57,50,98,68,49,29.98,29.56,8,4,0,0.00
2013-6-14,86,67,54,58,53,48,84,61,38,30.06,29.93,8,2,0,0.00
2013-6-15,82,69,58,68,60,48,91,74,61,29.98,29.76,10,2,0,0.14
2013-6-16,86,77,68,66,62,56,83,62,36,29.83,29.77,13,4,0,0.00
2013-6-17,91,75,60,60,57,53,84,56,31,29.86,29.74,11,3,0,0.00
2013-6-18,77,64,55,57,52,46,87,67,46,30.00,29.84,8,4,0,0.00
2013-6-19,84,68,51,57,48,40,83,52,27,30.09,29.99,9,2,0,0.00
2013-6-20,95,75,55,67,58,43,81,56,38,30.08,29.97,10,2,0,0.00
2013-6-21,82,73,67,68,65,58,99,76,63,30.08,29.77,13,2,0,0.78
2013-6-22,81,74,68,72,68,65,97,81,68,30.02,29.85,9,3,0,0.11
2013-6-23,94,78,67,75,67,63,90,72,54,29.95,29.82,8,4,0,0.00
2013-6-24,87,75,67,71,67,64,91,78,56,29.97,29.73,22,5,0,0.30
2013-6-25,85,74,66,75,69,64,96,84,70,29.89,29.71,10,2,0,0.26
2013-6-26,80,73,67,71,67,65,99,83,71,29.74,29.63,7,2,0,0.93
2013-6-27,90,76,65,75,68,63,96,80,51,29.70,29.59,16,4,0,0.64
2013-6-28,82,73,67,67,63,60,82,70,49,29.62,29.50,19,5,0,0.06
2013-6-29,75,67,63,63,60,55,89,79,61,29.69,29.50,10,3,0,0.00
2013-6-30,83,71,61,62,55,43,83,60,31,29.91,29.68,9,3,0,0.00
2013-7-1,81,71,58,56,51,47,79,53,35,30.00,29.90,13,3,0,0.00
2013-7-2,73,65,58,56,54,52,83,68,50,30.03,29.97,10,3,0,0.00
2013-7-3,70,64,60,65,60,56,95,88,80,29.99,29.94,5,1,0,0.42
2013-7-4,84,72,56,66,62,55,96,72,48,30.03,29.94,7,2,0,0.00
2013-7-5,92,77,62,68,62,58,89,64,35,30.00,29.91,6,2,0,0.00
2013-7-6,87,75,65,68,65,62,90,73,52,29.98,29.88,6,2,0,0.00
2013-7-7,90,80,71,72,69,66,84,70,52,29.92,29.84,7,3,0,0.00
2013-7-8,86,78,70,77,72,68,95,81,70,29.93,29.83,11,4,0,0.32
2013-7-9,85,80,72,77,74,69,94,84,74,29.90,29.76,9,3,0,0.73
2013-7-10,85,78,66,75,67,59,92,70,48,29.92,29.73,9,4,0,0.00
2013-7-11,87,74,63,62,57,49,87,60,34,30.03,29.91,11,2,0,0.00
2013-7-12,92,74,57,60,56,50,88,58,33,30.08,29.99,7,1,0,0.00
2013-7-13,92,77,60,65,61,57,90,61,35,30.08,30.02,8,2,0,0.00
2013-7-14,95,82,68,71,68,62,88,65,45,30.14,30.06,6,2,0,0.00
2013-7-15,94,82,71,77,72,67,89,74,50,30.20,30.13,7,1,0,0.00
2013-7-16,93,84,74,76,74,71,90,73,55,30.23,30.15,8,3,0,0.00
2013-7-17,95,86,76,76,74,71,86,69,51,30.24,30.07,7,3,0,0.00
2013-7-18,94,86,78,77,74,72,85,69,51,30.11,29.86,10,4,0,0.00
2013-7-19,95,86,71,75,73,70,96,68,45,29.85,29.65,14,7,0,0.27
2013-7-20,89,76,67,72,68,59,99,79,41,29.87,29.70,8,2,0,0.07
2013-7-21,92,75,64,74,68,64,99,82,46,29.87,29.75,8,2,0,0.73
2013-7-22,88,78,68,73,69,62,99,78,49,29.79,29.63,11,3,0,0.00
2013-7-23,82,72,62,67,62,56,95,73,48,29.89,29.58,10,4,0,0.03
2013-7-24,81,68,56,58,55,52,91,64,44,29.98,29.88,8,2,0,0.00
2013-7-25,84,70,56,60,57,54,93,66,43,30.03,29.93,7,2,0,0.00
2013-7-26,71,66,62,67,63,59,99,88,66,29.94,29.79,7,2,0,0.70
2013-7-27,64,60,56,61,53,48,98,79,60,29.83,29.77,9,4,0,0.00
2013-7-28,69,60,54,54,51,49,87,72,51,29.94,29.77,10,5,0,0.00
2013-7-29,84,66,56,62,56,53,91,72,49,30.11,29.93,8,3,0,0.00
2013-7-30,79,67,56,67,61,55,95,82,53,30.10,29.99,4,1,0,0.03
2013-7-31,75,67,62,68,65,62,99,93,75,29.99,29.85,6,1,0,0.46
2013-8-1,79,70,61,64,59,55,99,72,43,29.90,29.85,9,3,0,0.00
2013-8-2,83,72,62,70,64,58,98,77,58,29.85,29.75,8,3,0,0.29
2013-8-3,86,72,62,62,57,48,87,61,34,30.03,29.85,8,2,0,0.00
2013-8-4,81,69,59,64,59,56,93,71,46,30.12,30.02,9,2,0,0.00
2013-8-5,75,67,58,64,60,55,96,77,60,30.04,29.79,9,2,0,0.00
2013-8-6,87,74,68,73,69,63,97,84,63,29.81,29.72,6,3,0,0.00
2013-8-7,88,77,66,77,70,64,97,81,55,29.87,29.69,9,4,0,0.36
2013-8-8,84,72,63,65,59,51,97,67,36,29.95,29.86,8,2,0,0.00
2013-8-9,82,72,60,66,62,56,91,70,54,29.93,29.87,8,3,0,0.00
2013-8-10,85,74,63,67,61,56,95,66,42,30.04,29.94,7,2,0,0.00
2013-8-11,81,71,59,68,62,57,96,76,50,30.04,29.94,5,2,0,0.02
2013-8-12,82,74,68,74,68,65,96,82,65,29.95,29.78,8,3,0,0.02
2013-8-13,76,65,57,64,54,48,90,68,42,30.07,29.85,7,2,0,0.00
2013-8-14,78,64,54,56,52,49,91,69,41,30.15,30.06,5,1,0,0.00
2013-8-15,80,65,56,59,54,50,89,69,41,30.09,30.00,5,2,0,0.00
2013-8-16,86,71,57,60,55,52,90,61,33,30.11,30.04,8,1,0,0.00
2013-8-17,87,72,56,66,57,54,95,65,34,30.16,30.08,9,2,0,0.00
2013-8-18,88,72,58,66,59,56,95,67,41,30.13,30.01,6,1,0,0.00
2013-8-19,84,76,61,64,63,58,89,65,48,30.04,29.94,9,3,0,0.00
2013-8-20,86,75,65,67,64,62,92,72,48,30.04,29.94,7,2,0,0.00
2013-8-21,90,79,68,71,67,64,88,68,48,30.01,29.86,10,4,0,0.01
2013-8-22,81,71,66,73,68,64,98,89,73,30.07,29.92,10,2,0,0.21
2013-8-23,87,73,60,66,58,49,99,66,30,30.10,30.01,11,2,0,0.00
2013-8-24,90,74,58,66,61,56,96,67,40,30.17,30.08,6,2,0,0.00
2013-8-25,89,78,68,71,64,55,73,62,55,30.16,30.04,10,4,0,0.00
2013-8-26,90,80,70,76,70,63,82,72,61,30.06,29.90,9,4,0,0.00
2013-8-27,94,84,75,76,73,70,87,71,53,29.90,29.73,12,6,0,0.00
2013-8-28,89,80,71,74,71,68,92,75,58,29.96,29.73,9,3,0,0.00
2013-8-29,95,79,66,72,68,64,97,72,41,30.00,29.89,6,2,0,0.00
2013-8-30,94,77,67,78,70,64,99,81,54,29.90,29.65,14,4,0,0.40
2013-8-31,80,72,68,74,68,65,99,88,72,29.77,29.69,6,2,0,0.20
2013-9-1,85,73,64,72,68,64,99,86,64,29.73,29.62,12,3,0,1.24
2013-9-2,78,68,60,68,63,56,99,83,60,29.90,29.70,7,2,0,0.00
2013-9-3,76,65,55,59,56,52,92,73,52,30.01,29.89,6,2,0,0.00
2013-9-4,82,69,57,63,59,54,91,73,50,30.04,29.95,9,2,0,0.00
2013-9-5,79,69,57,66,57,50,94,67,40,30.20,30.02,9,3,0,0.00
2013-9-6,86,71,55,68,60,51,90,70,48,30.15,29.92,7,2,0,0.00
2013-9-7,88,76,65,68,65,62,91,72,48,29.92,29.79,10,3,0,0.00
2013-9-8,77,72,68,68,67,65,92,83,71,29.94,29.85,8,4,0,0.00
2013-9-9,94,81,68,77,72,65,92,75,58,29.88,29.71,9,3,0,0.00
2013-9-10,94,85,75,73,68,66,74,57,40,29.90,29.76,15,6,0,0.00
2013-9-11,89,79,73,71,68,66,85,70,50,29.97,29.87,7,3,0,0.00
2013-9-12,80,71,61,67,61,55,93,73,44,29.99,29.85,12,3,0,0.00
2013-9-13,71,59,50,56,46,42,84,64,41,30.12,29.98,8,3,0,0.00
2013-9-14,72,59,47,51,46,41,91,67,33,30.10,29.94,6,2,0,0.00
2013-9-15,60,57,54,58,53,43,99,87,54,30.08,29.89,3,1,0,0.98
2013-9-16,68,57,48,58,50,45,99,80,54,30.30,30.08,9,3,0,0.00
2013-9-17,74,59,45,56,51,44,97,76,51,30.27,30.03,7,1,0,0.00
2013-9-18,80,68,59,69,60,52,91,78,63,30.04,29.82,7,2,0,0.06
2013-9-19,90,74,68,77,70,65,99,88,64,29.87,29.66,7,2,0,0.93
2013-9-20,74,68,58,67,62,53,96,82,68,29.73,29.64,11,5,0,0.02
2013-9-21,65,58,51,54,49,45,94,75,56,29.86,29.70,9,4,0,0.00
2013-9-22,70,56,46,52,48,44,92,75,51,29.98,29.86,9,2,0,0.00
2013-9-23,72,57,45,53,49,43,95,76,49,30.05,29.95,8,2,0,0.00
2013-9-24,73,59,45,53,50,43,94,74,46,29.98,29.85,9,2,0,0.00
2013-9-25,74,60,48,59,52,47,97,77,53,29.90,29.85,9,2,0,0.00
2013-9-26,81,62,48,60,52,47,95,74,36,30.01,29.88,6,2,0,0.00
2013-9-27,86,64,48,59,52,46,95,70,37,30.09,29.96,8,1,0,0.00
2013-9-28,84,69,52,66,57,50,94,68,45,30.00,29.79,12,3,0,0.06
2013-9-29,73,60,50,63,51,44,98,76,36,29.98,29.83,11,2,0,0.24
2013-9-30,79,60,45,55,49,44,96,71,34,29.93,29.78,5,1,0,0.00
2013-10-1,79,69,60,65,62,55,96,79,62,29.87,29.78,11,5,0,0.00
2013-10-2,81,68,55,63,53,44,97,65,34,30.03,29.87,9,2,0,0.00
2013-10-3,79,68,59,71,64,55,99,88,75,29.91,29.75,6,1,0,0.08
2013-10-4,75,69,64,69,65,62,98,88,77,29.89,29.80,7,2,0,0.00
2013-10-5,80,68,61,74,66,60,99,94,75,29.88,29.65,7,2,0,0.36
2013-10-6,64,54,45,63,47,40,99,78,52,29.68,29.58,11,5,0,0.12
2013-10-7,70,54,44,51,46,41,93,76,48,30.00,29.66,12,4,0,0.00
2013-10-8,80,60,43,53,48,42,97,70,38,30.12,30.00,7,1,0,0.00
2013-10-9,76,59,46,50,48,44,95,69,34,30.18,30.06,7,1,0,0.00
2013-10-10,80,60,44,55,50,43,96,74,39,30.10,29.96,5,1,0,0.00
2013-10-11,80,62,50,58,52,48,95,74,45,30.01,29.86,7,1,0,0.00
2013-10-12,70,60,47,63,54,45,95,82,69,30.09,29.87,8,2,0,0.08
2013-10-13,65,51,42,45,42,35,97,73,36,30.33,30.10,7,2,0,0.00
2013-10-14,64,52,40,48,44,38,94,77,52,30.33,30.06,9,2,0,0.00
2013-10-15,63,56,45,61,51,43,97,86,75,30.06,29.66,9,2,0,0.04
2013-10-16,52,50,46,48,46,42,93,86,81,29.85,29.74,10,5,0,0.00
2013-10-17,51,47,38,48,45,37,98,93,78,29.84,29.72,11,3,0,0.23
2013-10-18,49,44,38,43,40,37,99,86,74,29.88,29.74,10,4,0,0.00
2013-10-19,52,45,40,41,38,34,90,77,50,29.84,29.69,13,4,0,0.00
2013-10-20,61,48,35,48,42,34,98,79,60,29.80,29.63,11,2,0,0.02
2013-10-21,55,44,34,47,34,26,80,68,51,29.89,29.69,14,6,0,0.00
2013-10-22,42,36,30,35,29,25,92,76,57,29.90,29.82,6,3,0,0.00
2013-10-23,44,37,30,32,28,24,91,73,45,29.94,29.83,16,5,0,0.00
2013-10-24,41,37,32,30,27,23,81,68,50,30.22,29.93,11,5,0,0.00
2013-10-25,51,40,29,30,27,24,83,61,41,30.32,29.95,11,6,0,0.00
2013-10-26,53,45,34,37,31,28,81,57,42,30.01,29.75,16,6,0,0.00
2013-10-27,54,42,30,33,30,26,87,65,42,29.99,29.88,9,3,0,0.00
2013-10-28,52,43,33,43,37,29,97,79,68,30.31,29.98,10,3,0,0.00
2013-10-29,63,47,34,44,40,33,97,78,43,30.30,30.07,7,2,0,0.00
2013-10-30,60,53,42,58,50,40,99,90,80,30.06,29.65,5,1,0,0.31
2013-10-31,63,58,46,62,57,43,99,96,89,29.65,29.12,14,4,0,0.80
2013-11-1,48,45,42,45,42,39,98,89,83,29.65,29.27,15,6,0,0.05
2013-11-2,46,42,37,44,39,36,99,91,79,30.06,29.64,8,3,0,0.00
2013-11-3,57,43,30,43,36,30,99,79,44,30.22,30.06,8,2,0,0.00
2013-11-4,57,50,42,45,40,37,82,71,53,30.20,30.01,11,4,0,0.00
2013-11-5,56,52,50,51,48,45,95,85,77,30.19,29.86,9,2,0,0.01
2013-11-6,56,46,33,56,45,28,99,95,74,30.09,29.66,14,5,0,0.86
2013-11-7,42,35,30,34,30,27,92,83,61,30.16,30.08,12,4,0,0.00
2013-11-8,47,43,31,34,32,30,95,67,56,30.22,29.83,8,3,0,0.00
2013-11-9,56,49,40,42,38,26,78,66,54,30.02,29.74,19,10,0,0.00
2013-11-10,48,41,34,33,31,27,79,66,53,30.25,30.02,11,5,0,0.00
2013-11-11,53,36,24,51,30,18,99,79,63,30.43,29.99,8,4,0,0.32
2013-11-12,31,25,21,21,18,16,87,76,56,30.61,30.43,8,4,0,0.00
2013-11-13,40,30,20,22,17,14,84,62,36,30.50,30.06,16,6,0,0.01
2013-11-14,48,40,31,29,25,21,67,56,45,30.07,29.82,14,6,0,0.00
2013-11-15,50,42,37,37,32,28,88,68,49,29.89,29.83,8,3,0,0.00
2013-11-16,60,50,41,59,50,36,99,97,78,29.86,29.48,9,4,0,0.18
2013-11-17,66,54,41,65,53,38,99,96,85,29.61,29.03,21,9,0,1.22
2013-11-18,41,36,28,38,30,25,90,78,62,30.18,29.63,17,8,0,0.00
2013-11-19,45,32,23,32,27,22,99,83,59,30.29,30.17,5,2,0,0.00
2013-11-20,45,37,29,38,31,27,99,81,54,30.21,30.02,8,3,0,0.10
2013-11-21,49,44,38,46,43,38,99,97,87,30.12,30.02,5,1,0,0.02
2013-11-22,42,35,26,41,32,21,99,90,75,30.39,30.11,10,3,0,0.03
2013-11-23,26,21,14,21,11,3,82,65,52,30.62,30.33,12,6,0,0.00
2013-11-24,26,18,10,10,6,4,81,59,40,30.63,30.26,10,5,0,0.00
2013-11-25,30,27,22,28,20,8,93,76,51,30.25,29.96,10,6,0,0.00
2013-11-26,33,28,15,28,22,6,93,79,61,30.08,29.92,14,5,0,0.00
2013-11-27,27,19,11,15,11,6,80,69,56,30.16,30.05,10,5,0,0.00
2013-11-28,32,25,18,18,16,12,92,66,56,30.41,30.08,8,3,0,0.00
2013-11-29,36,26,13,23,18,10,95,74,55,30.55,30.31,6,1,0,0.00
2013-11-30,49,37,30,33,28,22,93,70,53,30.31,29.95,9,3,0,0.00
2013-12-1,45,34,26,34,30,26,99,87,64,30.03,29.89,4,1,0,0.00
2013-12-2,43,35,26,35,31,26,99,85,57,29.89,29.67,10,3,0,0.09
2013-12-3,48,42,35,48,42,35,99,99,99,29.67,29.57,6,2,0,0.07
2013-12-4,55,49,38,54,48,37,99,98,92,29.64,29.40,14,4,0,0.03
2013-12-5,37,26,20,36,20,12,98,79,68,30.17,29.57,16,8,0,0.00
2013-12-6,20,16,11,13,10,5,80,75,68,30.44,30.14,7,4,0,0.00
2013-12-7,18,12,7,8,5,1,87,73,56,30.60,30.45,6,3,0,0.00
2013-12-8,25,20,12,24,17,4,99,87,68,30.50,29.83,10,3,0,0.00
2013-12-9,24,14,-1,24,11,-4,99,86,74,30.12,29.82,14,7,0,0.00
2013-12-10,20,10,-4,14,5,-6,89,78,68,30.19,29.88,17,7,0,0.00
2013-12-11,19,11,-1,14,6,-6,94,80,61,30.47,30.15,9,4,0,0.00
2013-12-12,17,9,-4,12,3,-8,83,76,64,30.43,30.10,12,6,0,0.00
2013-12-13,33,25,12,28,20,11,96,83,68,30.09,30.01,7,3,0,0.01
2013-12-14,31,28,21,31,27,20,99,97,93,30.01,29.82,7,4,0,0.00
2013-12-15,21,14,9,20,10,3,97,83,71,30.02,29.81,12,6,0,0.00
2013-12-16,23,14,3,18,9,-3,95,80,68,30.04,29.91,5,2,0,0.00
2013-12-17,33,24,15,27,20,14,99,86,71,29.98,29.83,13,7,0,0.00
2013-12-18,36,25,14,29,18,11,88,74,49,30.04,29.71,10,4,0,0.02
2013-12-19,39,33,26,34,31,25,99,93,80,29.83,29.69,8,2,0,0.10
2013-12-20,34,33,30,34,32,30,99,99,99,29.72,29.63,6,3,0,0.29
2013-12-21,33,31,28,33,31,28,99,99,99,29.76,29.51,10,3,0,0.09
2013-12-22,32,28,23,32,28,22,99,98,96,30.01,29.49,9,4,0,0.02
2013-12-23,24,11,-3,23,9,-6,99,92,86,30.35,30.01,10,6,0,0.00
2013-12-24,16,6,-3,14,3,-6,90,85,74,30.44,30.24,9,4,0,0.00
2013-12-25,25,22,16,25,20,13,99,93,82,30.24,29.98,10,5,0,0.01
2013-12-26,32,24,13,30,21,11,94,88,81,30.18,29.98,10,4,0,0.00
2013-12-27,40,32,18,34,29,18,99,87,73,30.17,29.96,14,4,0,0.16
2013-12-28,47,39,31,37,34,30,98,81,65,29.99,29.71,11,4,0,0.00
2013-12-29,38,26,8,33,22,3,99,86,74,30.10,29.65,9,5,0,0.00
2013-12-30,10,5,-2,4,-1,-6,88,77,62,30.23,30.09,7,4,0,0.00
2013-12-31,11,7,0,8,3,-2,92,86,76,30.26,30.08,8,3,0,0.00
2014-1-1,21,16,8,21,16,6,99,96,91,30.20,30.08,0,0,0,0.00
2014-1-2,19,12,1,19,9,-4,99,90,79,30.31,30.02,7,1,0,0.00